Date,TemperatureHighF,TemperatureAvgF,TemperatureLowF,DewpointHighF,DewpointAvgF,DewpointLowF,HumidityHigh,HumidityAvg,HumidityLow,PressureMaxIn,PressureMinIn,WindSpeedMaxMPH,WindSpeedAvgMPH,GustSpeedMaxMPH,PrecipitationSumIn
2014-1-1,67.8,56.0,46.7,58.2,50.4,38.5,96,82,65,30.19,29.94,1,0,7,0.00
2014-1-2,59.0,46.0,35.9,58.0,32.5,23.3,98,61,36,30.36,29.98,9,4,19,0.01
2014-1-3,55.0,41.6,29.4,35.9,27.5,23.1,88,60,32,30.39,30.11,3,0,10,0.00
2014-1-4,68.3,56.7,39.2,58.8,49.7,35.9,93,78,61,30.11,29.78,4,1,12,0.00
2014-1-5,63.9,50.4,36.0,62.8,39.8,20.3,98,69,44,30.28,29.73,10,4,22,0.02
2014-1-6,35.9,30.8,26.0,20.9,11.7,4.6,64,46,28,30.62,30.29,7,3,18,0.00
2014-1-7,47.4,35.8,23.6,33.4,19.4,9.0,72,53,28,30.57,30.31,5,1,11,0.00
2014-1-8,55.3,51.6,43.3,54.1,47.8,33.4,98,87,68,30.31,30.07,7,3,15,0.07
2014-1-9,67.4,61.5,54.7,66.3,59.7,54.1,100,94,86,30.10,29.95,3,0,9,0.35
2014-1-10,70.4,65.5,58.9,66.1,62.3,57.8,97,90,76,29.97,29.71,4,1,15,0.01
2014-1-11,72.8,61.5,44.2,64.1,46.8,30.9,99,66,22,30.06,29.77,6,1,12,0.01
2014-1-12,75.3,57.0,38.0,59.5,45.6,34.9,98,71,26,30.06,29.86,4,1,16,0.00
2014-1-13,68.8,61.4,41.9,64.7,46.2,25.2,100,65,21,30.06,29.75,10,2,19,0.16
2014-1-14,70.3,52.6,34.9,42.3,35.4,28.6,95,59,23,30.14,29.97,5,0,10,0.00
2014-1-15,58.6,48.9,40.2,38.0,28.6,20.4,75,48,25,30.35,30.12,6,2,13,0.00
2014-1-16,69.4,51.7,35.9,46.5,39.6,29.7,94,67,37,30.12,29.98,5,1,11,0.00
2014-1-17,62.9,52.6,38.9,42.8,25.9,16.0,79,40,18,30.25,30.08,5,1,12,0.00
2014-1-18,69.3,51.3,34.1,49.1,38.7,27.3,91,66,32,30.19,30.03,3,0,9,0.00
2014-1-19,68.8,55.1,42.5,53.9,40.4,27.2,100,66,22,30.23,30.06,3,0,9,0.00
2014-1-20,76.7,58.4,41.8,60.4,51.1,35.9,100,80,45,30.06,29.80,5,1,13,0.00
2014-1-21,61.0,53.7,36.6,57.2,27.6,19.3,93,39,24,30.26,29.94,9,4,17,0.00
2014-1-22,69.9,50.1,31.3,49.1,33.8,26.0,85,59,27,30.16,29.96,3,0,8,0.00
2014-1-23,58.4,47.5,33.7,54.6,44.9,32.2,95,90,83,30.51,29.98,8,2,20,0.56
2014-1-24,35.3,32.0,28.1,32.2,26.3,22.1,96,80,63,30.60,30.30,6,2,16,0.09
2014-1-25,59.9,43.1,28.4,40.5,32.6,24.7,88,69,41,30.30,29.96,3,0,9,0.00
2014-1-26,70.4,57.2,43.5,59.0,47.5,38.4,94,73,43,29.95,29.68,4,1,16,0.00
2014-1-27,60.7,55.4,43.8,59.6,44.4,21.0,98,69,40,30.08,29.70,7,3,16,0.00
2014-1-28,43.8,35.0,30.3,28.1,22.0,16.6,85,60,39,30.35,30.06,6,3,16,0.01
2014-1-29,43.9,35.0,28.7,22.0,17.2,10.0,71,50,26,30.43,30.23,2,0,8,0.00
2014-1-30,60.4,47.4,26.3,52.4,38.7,18.0,87,72,60,30.24,29.88,5,1,16,0.00
2014-1-31,73.9,63.2,53.2,61.7,57.8,51.8,98,84,63,29.92,29.80,5,1,13,0.00
2014-2-1,76.3,68.2,63.4,66.0,63.3,60.4,97,85,65,29.81,29.73,4,2,16,0.00
2014-2-2,67.1,49.9,39.3,67.1,48.4,36.3,100,95,87,30.09,29.76,9,4,19,0.06
2014-2-3,48.9,42.9,37.5,43.7,39.0,35.0,94,86,78,30.14,29.92,5,2,14,0.01
2014-2-4,52.8,47.2,40.8,47.6,45.2,39.7,98,93,82,29.99,29.78,5,2,11,0.06
2014-2-5,49.8,42.4,37.9,42.8,34.3,26.0,99,75,48,30.32,29.99,8,3,15,0.02
2014-2-6,37.9,34.8,32.2,26.8,24.6,22.9,70,66,60,30.37,30.25,6,3,14,0.00
2014-2-7,38.6,36.7,34.4,35.9,30.7,24.9,92,79,67,30.28,30.12,4,1,8,0.07
2014-2-8,53.9,45.5,38.5,47.0,41.5,35.9,94,86,74,30.16,30.02,1,0,4,0.00
2014-2-9,67.6,56.4,48.2,59.6,53.6,47.0,100,91,72,30.06,29.90,3,0,9,0.01
2014-2-10,60.1,51.0,39.6,60.1,50.6,38.3,100,98,94,30.05,29.91,5,2,12,0.49
2014-2-11,41.2,37.1,34.3,38.2,34.1,31.7,96,89,74,30.14,30.02,6,4,13,0.11
2014-2-12,49.6,39.9,33.4,34.7,32.8,29.7,96,78,49,30.11,29.98,7,3,15,0.00
2014-2-13,62.1,46.8,30.9,44.5,37.3,29.4,98,73,44,30.03,29.88,2,0,8,0.00
2014-2-14,78.3,58.8,41.2,58.7,47.1,39.7,100,70,35,29.98,29.74,6,2,15,0.00
2014-2-15,69.4,56.5,41.5,50.6,38.2,28.4,83,55,24,30.09,29.98,5,1,13,0.00
2014-2-16,76.1,66.1,57.8,64.5,59.0,50.6,94,79,56,30.01,29.91,4,1,11,0.00
2014-2-17,79.0,69.9,64.5,65.2,63.0,61.9,93,80,58,30.02,29.87,5,1,14,0.00
2014-2-18,80.3,70.1,65.2,67.9,64.2,60.9,100,83,53,30.02,29.87,4,1,12,0.00
2014-2-19,79.9,69.9,62.0,67.3,63.8,60.6,98,82,57,29.90,29.73,5,2,14,0.00
2014-2-20,78.1,69.7,57.6,70.0,61.9,36.6,98,79,40,29.99,29.69,7,2,15,0.38
2014-2-21,68.4,56.9,43.6,40.1,34.1,27.1,79,45,22,30.11,29.98,4,1,12,0.00
2014-2-22,71.3,59.3,46.0,56.8,50.3,39.3,86,73,51,30.01,29.84,4,1,12,0.00
2014-2-23,76.7,66.6,60.2,69.3,63.1,56.2,100,89,66,29.92,29.81,1,0,5,0.04
2014-2-24,68.4,64.5,60.4,65.4,62.4,58.4,98,93,87,30.03,29.90,4,0,11,0.00
2014-2-25,80.5,69.0,60.5,69.7,65.0,59.6,100,88,61,29.97,29.81,5,0,8,0.13
2014-2-26,60.5,45.7,37.3,59.6,42.0,33.5,98,87,65,30.11,29.85,7,4,18,0.63
2014-2-27,56.6,44.3,33.2,37.8,31.9,25.9,88,64,37,30.11,29.89,2,0,9,0.00
2014-2-28,73.7,59.5,41.1,64.4,54.9,37.0,96,85,68,29.89,29.72,6,1,16,0.00
2014-3-1,82.2,72.3,66.3,68.6,66.0,63.9,98,82,56,29.95,29.83,5,1,13,0.00
2014-3-2,75.3,60.3,31.8,69.5,56.5,27.5,97,88,69,30.08,29.81,10,3,19,0.05
2014-3-3,41.5,32.5,26.0,28.2,24.6,20.7,88,73,55,30.25,30.08,9,5,20,0.12
2014-3-4,38.6,34.6,30.6,36.6,33.0,27.2,98,94,87,30.19,29.97,1,0,5,0.99
2014-3-5,55.7,46.4,38.5,48.6,43.1,35.8,98,89,73,30.03,29.90,3,0,6,0.03
2014-3-6,58.3,50.9,43.6,46.4,42.2,38.2,95,74,53,30.11,29.98,7,2,14,0.01
2014-3-7,68.8,53.0,37.5,50.9,44.0,35.7,98,74,46,30.03,29.85,5,1,12,0.00
2014-3-8,69.8,60.8,51.6,59.7,55.4,50.5,97,83,69,30.10,29.84,5,1,12,0.52
2014-3-9,56.6,49.9,44.3,50.9,47.7,43.8,99,92,80,30.21,30.08,6,2,13,0.55
2014-3-10,72.7,59.7,48.6,58.9,52.9,46.9,95,80,57,30.14,29.83,1,0,8,0.00
2014-3-11,73.5,63.6,57.3,60.3,57.5,53.8,97,82,61,29.84,29.57,4,1,9,0.00
2014-3-12,66.8,59.7,51.0,59.9,41.5,27.6,98,55,26,30.16,29.63,10,5,22,0.00
2014-3-13,68.3,53.6,38.9,43.9,35.5,29.5,83,53,25,30.26,30.09,4,0,12,0.00
2014-3-14,74.7,62.1,49.1,60.4,53.2,43.7,95,74,52,30.09,29.91,4,1,11,0.00
2014-3-15,69.6,66.7,64.3,68.5,65.0,60.3,100,95,86,29.94,29.64,4,1,10,0.27
2014-3-16,68.8,60.6,45.2,68.5,55.0,36.2,100,83,60,29.91,29.60,11,4,24,0.07
2014-3-17,62.6,50.5,43.3,43.6,38.6,34.3,81,65,46,29.92,29.74,8,3,15,0.00
2014-3-18,77.6,61.7,44.9,58.5,51.5,41.6,95,72,43,29.79,29.67,5,2,15,0.00
2014-3-19,73.9,65.1,58.3,61.2,55.0,44.8,97,72,49,30.06,29.78,5,1,10,0.00
2014-3-20,77.6,66.1,56.9,50.6,45.2,41.2,74,49,32,30.12,29.96,2,0,7,0.00
2014-3-21,79.6,66.3,53.2,64.7,58.7,49.9,100,79,48,29.98,29.81,5,1,15,0.00
2014-3-22,84.0,72.9,66.4,71.0,67.1,63.1,97,83,57,29.92,29.81,3,0,10,0.00
2014-3-23,70.6,60.6,53.6,68.0,56.3,49.9,98,86,73,30.11,29.90,8,3,19,0.27
2014-3-24,62.0,55.6,52.3,53.1,48.2,43.4,93,77,64,30.10,29.92,2,0,8,0.01
2014-3-25,70.4,59.0,47.1,50.6,42.6,32.2,94,60,27,30.22,30.03,7,1,13,0.00
2014-3-26,65.6,57.9,51.3,57.0,50.1,39.4,95,76,54,30.14,29.93,8,3,18,0.19
2014-3-27,72.0,67.7,60.9,70.8,65.2,57.0,99,92,86,29.92,29.69,5,2,13,0.01
2014-3-28,85.5,74.0,61.0,71.0,68.7,59.5,100,85,56,29.84,29.63,3,0,10,0.16
2014-3-29,78.6,64.2,53.1,59.6,49.6,38.8,96,65,27,30.12,29.85,7,2,12,0.01
2014-3-30,75.1,61.2,47.6,55.7,47.2,42.5,92,63,34,30.17,30.00,6,2,13,0.00
2014-3-31,79.6,67.2,55.3,64.4,59.0,50.3,97,77,51,29.99,29.84,5,2,15,0.00
2014-4-1,85.5,72.8,65.6,71.4,67.6,63.8,99,85,55,29.92,29.82,5,1,14,0.00
2014-4-2,83.8,75.3,70.6,71.4,69.8,67.8,96,84,61,29.84,29.71,7,3,21,0.00
2014-4-3,77.9,74.4,71.8,72.7,70.2,67.4,95,87,79,29.76,29.64,5,2,15,0.00
2014-4-4,76.0,68.8,60.4,72.9,50.3,35.0,98,57,23,30.00,29.70,9,3,19,0.00
2014-4-5,70.9,64.0,55.3,54.8,45.2,39.0,69,51,39,29.95,29.76,6,1,11,0.00
2014-4-6,64.8,60.3,56.2,64.3,58.7,52.8,100,95,72,29.78,29.56,6,2,12,0.06
2014-4-7,72.8,62.8,52.2,54.7,51.9,48.5,89,69,50,29.92,29.72,5,2,12,0.00
2014-4-8,73.0,61.5,50.5,53.6,43.3,30.5,93,58,22,30.11,29.88,11,3,24,0.00
2014-4-9,83.2,63.8,44.6,52.1,43.7,38.5,93,55,23,30.19,30.04,1,0,9,0.00
2014-4-10,83.8,69.3,57.8,61.5,57.0,51.3,95,68,36,30.08,29.93,5,2,18,0.00
2014-4-11,83.8,70.9,61.0,63.6,61.0,59.0,97,74,46,30.00,29.90,4,1,17,0.00
2014-4-12,83.2,72.1,64.5,67.9,64.8,62.7,97,80,53,29.95,29.82,6,2,17,0.00
2014-4-13,80.3,73.7,67.9,71.9,68.7,64.7,92,85,62,29.83,29.61,5,2,13,0.01
2014-4-14,75.8,60.9,47.3,71.9,56.4,37.5,100,85,65,30.09,29.61,11,4,24,0.74
2014-4-15,64.5,52.1,40.1,40.0,31.7,20.0,82,51,24,30.22,30.07,8,2,16,0.00
2014-4-16,68.8,55.9,39.9,53.3,45.0,37.8,93,69,46,30.09,29.92,5,1,13,0.00
2014-4-17,70.6,62.2,57.8,59.9,55.9,53.0,87,80,65,30.06,29.92,6,1,14,0.00
2014-4-18,80.3,68.5,57.3,57.5,55.1,52.7,91,65,40,30.10,29.98,4,0,12,0.00
2014-4-19,82.8,68.6,55.0,62.8,58.1,53.3,98,72,40,30.10,29.98,3,0,9,0.00
2014-4-20,82.4,71.1,63.5,63.8,59.5,50.9,97,71,35,30.09,29.97,4,1,11,0.00
2014-4-21,83.0,71.6,62.6,67.1,64.6,62.0,100,80,57,30.02,29.87,2,0,10,0.00
2014-4-22,86.1,73.7,65.2,68.9,66.0,62.4,98,79,46,29.92,29.79,1,0,7,0.00
2014-4-23,87.2,72.8,64.3,70.3,66.0,61.7,100,82,45,29.89,29.73,4,1,13,0.00
2014-4-24,85.3,75.0,67.1,68.4,66.9,65.3,97,77,52,29.83,29.72,3,1,10,0.00
2014-4-25,87.8,76.6,68.8,69.8,67.3,63.9,97,76,46,29.92,29.79,4,0,10,0.00
2014-4-26,84.0,75.2,68.6,72.4,69.0,64.4,97,82,56,29.84,29.64,4,1,13,0.00
2014-4-27,89.7,79.3,74.4,73.1,70.9,68.0,88,77,50,29.65,29.44,6,3,17,0.00
2014-4-28,91.8,80.5,68.9,72.5,60.5,38.3,89,58,16,29.59,29.47,4,1,12,0.00
2014-4-29,82.8,74.5,66.9,71.0,57.6,41.0,100,63,26,29.84,29.51,8,2,16,0.00
2014-4-30,73.7,65.7,58.3,43.7,40.7,33.7,55,41,30,30.05,29.84,7,2,17,0.00
2014-5-1,75.6,63.6,48.9,49.4,41.8,32.6,86,49,21,30.07,29.93,3,0,10,0.00
2014-5-2,80.5,66.9,51.7,50.3,44.8,38.4,84,49,23,30.01,29.87,2,0,7,0.00
2014-5-3,90.3,72.4,55.9,55.4,48.7,38.0,90,50,16,30.01,29.92,4,1,12,0.00
2014-5-4,88.6,72.6,56.0,59.8,51.6,42.3,93,54,23,30.04,29.94,3,1,13,0.00
2014-5-5,85.9,71.6,56.5,62.9,58.3,54.8,96,67,37,29.98,29.81,4,1,15,0.00
2014-5-6,84.9,73.9,64.2,65.7,62.7,60.2,92,70,47,29.85,29.73,5,2,15,0.00
2014-5-7,84.7,74.7,65.6,72.5,67.5,63.2,97,80,57,29.84,29.75,6,2,16,0.00
2014-5-8,78.5,76.1,73.9,73.5,72.4,71.0,97,89,80,29.83,29.76,6,2,14,0.03
2014-5-9,86.5,75.1,65.2,74.7,70.3,61.3,100,86,60,29.95,29.72,7,1,13,0.61
2014-5-10,87.8,75.3,64.0,73.6,68.6,62.2,98,82,57,29.86,29.73,5,1,13,0.01
2014-5-11,88.8,79.5,74.6,73.6,72.1,69.3,92,79,55,29.80,29.67,5,2,15,0.00
2014-5-12,84.9,78.1,75.3,76.0,73.5,71.8,98,86,69,29.83,29.73,6,2,15,0.06
2014-5-13,76.1,66.9,63.2,72.6,63.5,56.9,100,89,77,30.05,29.83,8,3,19,2.82
2014-5-14,71.8,63.0,55.1,59.0,51.0,44.0,95,68,39,30.16,30.02,8,4,22,0.16
2014-5-15,80.7,65.7,48.8,57.0,48.1,40.3,98,59,26,30.23,30.06,2,0,8,0.00
2014-5-16,85.1,71.4,58.6,59.9,52.8,37.3,92,58,23,30.10,29.95,5,1,15,0.00
2014-5-17,86.5,73.0,60.2,64.9,59.7,49.3,92,67,29,29.99,29.90,5,1,16,0.00
2014-5-18,85.7,74.3,63.7,67.2,63.1,57.9,98,71,40,30.03,29.95,3,1,11,0.00
2014-5-19,87.4,75.6,66.9,69.4,65.8,59.6,99,75,41,30.01,29.95,5,1,13,0.00
2014-5-20,88.4,78.1,70.8,70.2,68.0,64.5,93,73,47,30.01,29.94,4,1,14,0.00
2014-5-21,89.0,77.8,68.9,72.2,67.4,60.8,100,74,40,30.03,29.95,4,1,13,0.00
2014-5-22,89.7,77.8,68.8,73.1,67.7,63.2,100,74,44,30.04,29.95,3,1,10,0.00
2014-5-23,88.4,77.4,68.8,72.6,67.5,62.7,100,74,44,30.02,29.92,3,1,11,0.00
2014-5-24,89.3,78.2,67.8,71.3,68.4,66.4,99,74,49,29.98,29.86,4,0,9,0.00
2014-5-25,89.0,78.8,70.6,71.4,68.5,63.7,97,73,44,29.97,29.86,4,1,10,0.00
2014-5-26,77.6,72.3,66.4,74.1,70.8,66.4,100,95,85,29.96,29.87,7,1,14,3.34
2014-5-27,76.5,71.0,63.7,72.5,32.4,-99.9,100,72,77,29.95,29.79,6,0,8,1.36
2014-5-28,85.3,75.2,68.4,73.6,57.9,-99.9,100,76,55,29.81,29.71,6,0,14,1.73
2014-5-29,89.0,78.0,66.8,71.3,67.9,64.4,100,74,45,29.78,29.70,4,0,10,0.00
2014-5-30,94.3,80.1,71.8,73.7,70.6,65.7,100,76,40,29.76,29.68,4,0,9,1.15
2014-5-31,89.0,78.0,72.8,76.8,73.3,71.2,100,87,57,29.81,29.75,3,0,9,0.11
2014-6-1,91.4,80.2,71.3,75.3,71.7,68.9,100,77,50,29.85,29.78,2,0,10,0.00
2014-6-2,89.9,81.2,73.7,75.5,72.8,69.5,98,77,54,29.89,29.82,3,0,9,0.00
2014-6-3,89.0,80.3,73.0,75.8,73.2,71.3,99,80,59,29.92,29.83,2,0,11,0.00
2014-6-4,92.7,81.5,72.3,76.1,72.9,71.3,100,77,52,29.85,29.75,3,0,10,0.00
2014-6-5,92.7,82.2,73.9,75.2,73.2,70.0,97,76,50,29.81,29.73,3,0,13,0.00
2014-6-6,93.2,82.7,74.0,76.7,73.4,71.2,100,76,51,29.88,29.78,2,0,10,0.01
2014-6-7,95.1,83.5,74.2,77.1,73.5,70.2,100,74,47,29.89,29.79,1,0,9,0.00
2014-6-8,94.3,83.4,74.6,75.9,73.2,67.6,96,74,44,29.89,29.73,3,0,11,0.00
2014-6-9,88.6,79.6,72.3,76.6,74.0,70.4,99,84,60,29.81,29.69,5,1,17,0.45
2014-6-10,89.3,81.2,73.2,75.7,67.9,58.1,92,67,38,29.79,29.69,4,1,14,0.00
2014-6-11,96.1,81.6,67.4,77.3,70.5,65.9,100,73,42,29.83,29.71,1,0,9,0.00
2014-6-12,95.9,84.6,77.0,77.2,75.4,73.1,96,76,48,29.82,29.70,4,0,10,0.00
2014-6-13,95.4,84.3,75.4,76.7,72.2,66.0,91,70,41,29.89,29.78,4,0,10,0.01
2014-6-14,95.9,83.0,73.2,76.2,72.4,68.7,97,73,45,29.90,29.78,4,1,10,0.00
2014-6-15,95.4,84.1,75.3,76.1,73.5,70.3,96,73,46,29.90,29.78,3,1,14,0.00
2014-6-16,94.0,84.5,77.4,76.1,73.6,69.1,94,72,45,29.98,29.88,4,1,12,0.00
2014-6-17,94.7,85.0,78.6,77.5,74.1,68.7,93,72,45,29.97,29.87,4,1,13,0.00
2014-6-18,94.7,84.4,78.1,77.1,73.7,69.3,90,72,47,29.94,29.87,4,1,14,0.00
2014-6-19,96.6,84.1,76.3,75.4,72.0,64.8,91,69,36,29.98,29.89,3,0,11,0.00
2014-6-20,91.4,81.9,74.2,75.6,72.4,68.8,94,74,52,30.02,29.91,5,0,11,0.04
2014-6-21,93.2,82.5,72.7,76.2,73.2,70.7,99,76,50,29.97,29.84,2,0,8,0.00
2014-6-22,94.3,83.4,77.2,76.7,73.2,66.6,92,74,42,29.89,29.78,3,0,8,0.00
2014-6-23,90.5,80.5,73.7,76.4,74.2,70.0,98,82,59,29.92,29.79,8,0,13,0.66
2014-6-24,90.7,78.5,72.3,78.0,74.8,69.7,99,89,57,29.98,29.90,5,0,12,0.32
2014-6-25,84.9,76.4,73.5,75.6,73.1,70.4,99,90,71,29.96,29.90,3,0,11,0.09
2014-6-26,85.5,76.9,72.1,76.9,72.5,70.2,100,87,71,29.93,29.85,5,0,12,0.09
2014-6-27,92.5,82.6,74.6,77.8,74.4,71.5,92,78,53,29.87,29.79,5,2,18,0.00
2014-6-28,92.3,83.5,76.8,79.8,76.4,73.9,93,80,59,29.92,29.82,5,2,20,0.04
2014-6-29,93.4,84.6,77.4,77.4,76.0,73.9,95,77,56,29.98,29.91,3,1,12,0.00
2014-6-30,94.9,84.3,76.3,77.0,74.6,70.1,97,75,46,29.96,29.86,3,1,11,0.00
2014-7-1,96.1,83.9,74.6,77.2,74.8,71.9,100,76,47,29.91,29.82,2,0,8,0.00
2014-7-2,97.8,82.3,72.8,77.3,73.4,69.4,99,77,43,29.97,29.90,5,0,13,0.17
2014-7-3,95.4,80.9,73.3,77.0,72.2,67.9,99,77,45,30.06,29.95,7,0,17,0.03
2014-7-4,93.2,80.1,72.5,73.2,70.7,68.5,94,75,46,30.10,30.00,4,0,9,0.02
2014-7-5,89.7,78.0,72.7,75.7,72.6,69.1,96,85,58,30.10,29.99,3,0,9,0.04
2014-7-6,92.9,81.6,72.0,77.1,73.5,70.1,100,79,49,30.01,29.89,2,0,9,0.00
2014-7-7,95.9,83.0,73.5,76.9,73.1,68.1,98,75,41,29.96,29.87,2,0,8,0.20
2014-7-8,94.5,83.8,74.2,77.1,74.0,66.6,99,74,47,29.98,29.89,2,0,8,0.00
2014-7-9,96.6,85.0,72.8,76.1,72.1,65.9,98,69,38,30.00,29.89,1,0,9,0.00
2014-7-10,94.3,83.0,73.9,77.5,72.1,65.5,98,72,44,30.01,29.91,3,0,12,0.00
2014-7-11,97.5,84.4,72.5,76.2,71.0,66.2,90,67,37,30.05,29.97,1,0,11,0.00
2014-7-12,98.0,84.4,73.2,76.4,72.7,68.1,98,71,40,30.09,29.96,1,0,8,0.00
2014-7-13,98.0,84.6,75.6,76.2,73.1,69.0,93,71,41,30.02,29.89,2,0,7,0.00
2014-7-14,97.1,84.0,76.5,79.9,74.1,69.5,90,74,43,29.96,29.84,2,0,8,0.04
2014-7-15,89.9,81.5,76.3,75.9,73.4,69.6,93,78,54,29.95,29.83,6,0,11,0.31
2014-7-16,92.7,81.3,75.1,76.8,72.9,66.1,97,77,50,29.92,29.81,5,0,14,0.00
2014-7-17,90.5,82.1,76.3,78.2,75.1,73.3,94,80,61,29.85,29.73,4,0,14,0.06
2014-7-18,88.0,82.3,77.7,79.1,75.3,71.6,96,80,61,29.87,29.75,3,0,8,0.01
2014-7-19,88.6,79.9,73.3,74.5,71.9,69.7,90,78,60,29.92,29.85,1,0,6,0.00
2014-7-20,94.9,83.3,74.2,78.1,74.9,72.0,95,78,52,29.93,29.84,4,0,9,0.00
2014-7-21,99.4,87.2,77.2,78.8,75.9,70.9,98,72,41,29.96,29.85,1,0,6,0.00
2014-7-22,96.6,85.7,76.7,79.0,75.3,72.2,98,74,47,29.97,29.87,2,0,7,0.03
2014-7-23,94.5,83.9,76.1,78.7,75.7,71.9,97,78,51,29.98,29.85,2,0,7,0.00
2014-7-24,94.9,83.0,75.4,76.5,73.6,70.7,91,75,48,29.95,29.84,5,0,10,0.09
2014-7-25,96.6,84.5,74.6,77.5,73.7,69.4,99,73,43,29.97,29.85,2,0,9,0.00
2014-7-26,97.1,85.5,76.0,78.4,75.1,72.0,98,73,45,29.98,29.88,3,0,13,0.00
2014-7-27,99.7,86.8,76.1,78.3,74.8,69.3,99,71,39,30.00,29.91,2,0,8,0.00
2014-7-28,99.2,87.0,75.4,77.9,73.5,66.3,98,68,35,30.05,29.91,1,0,7,0.00
2014-7-29,94.7,82.5,73.3,77.5,73.0,60.8,94,76,36,30.01,29.92,8,0,19,0.59
2014-7-30,95.9,83.4,73.2,77.0,73.9,69.8,100,76,43,29.97,29.85,3,0,10,0.01
2014-7-31,95.9,83.9,76.8,80.3,75.0,71.7,91,76,49,29.91,29.78,3,0,10,0.07
2014-8-1,88.0,80.3,74.0,75.6,72.3,68.7,99,78,56,29.91,29.83,4,0,9,0.54
2014-8-2,81.6,75.9,69.4,70.7,68.8,66.7,95,79,66,29.96,29.87,3,0,9,0.00
2014-8-3,90.1,79.9,71.3,72.7,69.7,66.6,98,74,47,29.94,29.83,2,0,8,0.00
2014-8-4,94.7,82.5,74.0,75.6,71.6,64.0,98,73,37,29.92,29.84,2,0,8,0.00
2014-8-5,94.3,83.9,75.4,77.3,74.0,71.4,97,74,49,29.97,29.89,4,0,10,0.00
2014-8-6,96.3,85.4,75.1,76.7,73.7,68.0,97,71,42,29.96,29.84,2,0,8,0.00
2014-8-7,99.0,86.6,76.3,77.9,74.9,71.2,96,71,42,29.91,29.77,3,0,12,0.00
2014-8-8,98.7,86.4,77.6,79.3,76.0,72.6,98,74,45,29.90,29.80,3,0,12,0.01
2014-8-9,98.7,84.2,76.7,79.7,75.5,66.7,99,78,36,29.95,29.84,4,0,8,0.33
2014-8-10,96.3,84.0,77.4,79.2,76.2,72.6,98,79,47,29.97,29.85,3,0,10,0.04
2014-8-11,99.9,83.5,73.7,79.0,74.5,69.0,99,78,40,29.96,29.83,6,0,10,0.87
2014-8-12,97.5,85.1,73.3,76.9,72.4,64.2,100,71,35,29.95,29.82,1,0,10,0.00
2014-8-13,94.7,84.7,74.0,73.9,69.0,62.0,88,62,35,29.95,29.85,1,0,8,0.00
2014-8-14,94.0,84.3,74.0,74.7,70.8,67.9,86,65,43,29.95,29.85,2,0,9,0.00
2014-8-15,98.0,86.0,76.5,77.5,74.2,68.8,95,71,40,29.94,29.79,3,0,11,0.00
2014-8-16,99.9,86.2,77.9,78.3,74.9,67.5,92,72,37,29.90,29.81,3,0,12,0.02
2014-8-17,99.9,87.2,77.7,79.0,74.8,67.7,97,70,36,29.92,29.81,3,0,12,0.00
2014-8-18,94.5,82.8,76.5,79.1,75.5,67.8,95,79,54,29.90,29.79,4,0,9,0.03
2014-8-19,97.8,85.4,76.1,79.1,74.5,69.8,99,73,42,29.88,29.77,3,0,14,0.00
2014-8-20,95.4,85.7,76.7,78.5,75.3,71.7,95,73,47,29.93,29.84,3,1,11,0.00
2014-8-21,99.0,86.9,78.5,80.3,75.1,68.8,98,72,39,30.00,29.91,3,1,12,0.00
2014-8-22,99.4,86.8,76.5,79.2,74.3,64.9,98,70,33,30.00,29.89,2,0,9,0.00
2014-8-23,98.7,85.8,74.2,78.0,73.3,68.4,97,69,38,29.95,29.82,2,0,12,0.00
2014-8-24,98.2,86.1,74.0,77.0,72.1,64.2,98,67,34,29.90,29.76,2,0,8,0.00
2014-8-25,99.4,86.3,74.2,77.7,72.6,68.0,95,67,39,29.88,29.76,4,0,12,0.00
2014-8-26,95.4,84.5,76.7,75.4,73.1,69.1,90,71,45,29.92,29.81,2,0,8,0.00
2014-8-27,94.0,83.2,75.3,75.2,72.2,67.4,89,71,44,29.92,29.84,3,0,13,0.00
2014-8-28,88.8,80.2,76.1,75.4,73.8,71.7,94,82,59,29.87,29.79,2,0,8,0.00
2014-8-29,88.8,80.0,74.7,78.8,75.3,71.8,98,86,65,29.82,29.73,5,0,10,0.44
2014-8-30,92.3,80.5,73.7,77.3,74.1,72.8,100,82,54,29.89,29.79,2,0,8,0.01
2014-8-31,82.2,77.7,74.4,75.5,74.1,73.0,99,89,75,29.96,29.86,1,0,6,0.10
2014-9-1,94.5,83.6,74.7,79.0,75.2,72.1,100,78,50,29.89,29.80,5,0,10,0.00
2014-9-2,94.9,84.6,77.2,78.3,75.4,71.5,98,76,48,29.90,29.83,3,1,12,0.00
2014-9-3,94.5,85.2,76.0,78.0,74.6,68.2,99,73,45,29.93,29.85,4,1,10,0.00
2014-9-4,92.9,83.1,76.3,78.9,75.7,68.5,98,80,54,29.97,29.87,4,0,9,0.36
2014-9-5,94.9,83.6,75.4,79.0,75.1,70.1,99,77,48,29.99,29.89,2,0,11,0.00
2014-9-6,96.6,83.7,75.6,78.6,75.2,70.7,99,78,44,29.97,29.86,5,0,11,0.02
2014-9-7,92.9,78.4,73.0,77.9,74.4,70.5,100,89,52,29.96,29.86,7,0,18,0.62
2014-9-8,93.6,81.5,72.5,77.1,73.4,70.3,100,79,49,29.95,29.84,0,0,5,0.01
2014-9-9,95.9,83.6,73.9,77.2,74.1,71.9,99,75,48,29.92,29.78,2,0,11,0.00
2014-9-10,95.9,84.3,76.1,77.7,75.1,72.3,97,76,49,29.82,29.73,3,0,10,0.00
2014-9-11,98.5,85.9,76.3,78.2,74.5,68.1,97,72,39,29.88,29.77,4,0,10,0.00
2014-9-12,87.4,79.6,76.0,79.3,75.8,74.5,98,89,69,29.95,29.83,2,0,7,0.79
2014-9-13,76.8,73.2,69.1,74.9,69.6,64.5,100,89,74,30.06,29.92,3,1,10,0.18
2014-9-14,77.7,69.8,66.0,69.1,64.8,63.6,97,82,70,30.10,30.00,2,0,6,0.00
2014-9-15,91.8,79.7,69.4,74.9,71.5,67.8,98,78,54,30.02,29.91,1,0,7,0.00
2014-9-16,90.7,79.9,76.1,78.0,75.8,73.6,99,88,60,29.98,29.88,2,0,6,0.09
2014-9-17,89.0,78.1,75.1,79.5,76.1,73.4,100,94,64,29.91,29.79,3,0,8,1.40
2014-9-18,83.8,77.6,75.3,78.6,75.7,73.2,100,94,76,29.81,29.75,1,0,8,0.34
2014-9-19,84.9,77.6,73.3,76.3,74.2,72.4,100,90,70,29.85,29.76,1,0,6,1.28
2014-9-20,89.5,80.3,74.4,75.2,73.1,70.0,100,80,54,29.89,29.81,2,0,8,0.01
2014-9-21,91.4,81.3,73.9,75.1,70.9,65.4,98,74,44,29.96,29.87,2,0,8,0.00
2014-9-22,93.6,79.7,72.3,75.3,70.9,68.1,93,77,45,30.00,29.91,6,0,14,0.08
2014-9-23,84.3,73.8,63.1,68.9,59.3,52.9,86,63,35,30.05,29.95,2,0,9,0.00
2014-9-24,84.3,73.5,64.5,65.3,61.5,56.0,86,68,39,30.04,29.97,2,0,8,0.00
2014-9-25,80.3,73.2,69.4,69.9,66.9,63.2,95,81,64,30.05,29.95,5,0,13,0.27
2014-9-26,85.7,76.3,68.4,68.6,67.0,63.2,97,75,50,30.00,29.90,2,0,8,0.00
2014-9-27,81.6,75.1,70.9,72.0,68.4,66.7,88,80,61,29.93,29.85,1,0,6,0.04
2014-9-28,88.2,78.4,71.3,73.9,70.2,66.5,92,77,57,29.90,29.81,2,0,9,0.02
2014-9-29,89.5,78.7,71.1,72.4,70.7,68.2,99,78,52,29.87,29.76,2,0,7,0.01
2014-9-30,90.3,78.6,71.6,74.8,72.6,70.8,99,83,55,29.79,29.69,3,0,9,0.00
2014-10-1,93.4,82.3,75.6,79.9,75.1,72.8,100,81,53,29.76,29.67,2,0,8,0.00
2014-10-2,94.3,84.2,77.7,79.8,76.5,73.4,100,80,52,29.82,29.71,4,1,15,0.00
2014-10-3,83.4,73.9,63.5,77.5,60.9,50.3,100,69,34,30.08,29.81,6,1,17,1.04
2014-10-4,79.0,68.0,59.9,57.6,50.0,40.4,83,56,27,30.12,29.94,2,0,13,0.00
2014-10-5,86.3,70.8,54.8,65.3,59.6,51.5,95,70,44,29.93,29.79,2,0,11,0.00
2014-10-6,88.4,73.7,67.9,75.1,67.0,62.1,96,81,58,29.87,29.76,10,1,17,0.00
2014-10-7,92.5,77.6,66.4,78.3,70.6,65.3,100,82,50,29.92,29.82,1,0,7,0.01
2014-10-8,90.1,79.7,70.3,76.3,73.3,70.3,100,82,57,29.96,29.87,4,0,13,0.01
2014-10-9,91.2,80.1,70.1,73.6,70.9,66.0,100,76,45,29.93,29.82,2,0,9,0.00
2014-10-10,91.2,81.6,75.1,77.6,73.5,70.0,100,78,54,29.87,29.80,3,0,9,0.01
2014-10-11,84.1,73.8,65.5,76.0,69.5,62.5,100,87,61,29.96,29.82,6,1,11,0.05
2014-10-12,88.2,73.3,65.2,75.8,68.9,62.9,94,87,60,29.92,29.70,4,0,12,0.08
2014-10-13,82.4,72.7,60.5,76.5,65.5,52.9,95,80,50,29.91,29.62,7,2,20,0.34
2014-10-14,76.7,64.3,54.2,54.3,48.4,38.5,88,62,27,30.03,29.90,6,1,14,0.00
2014-10-15,85.3,66.7,50.1,59.4,50.4,44.2,99,62,26,30.04,29.91,2,0,6,0.00
2014-10-16,87.4,70.4,55.3,61.4,57.6,53.9,98,68,35,29.95,29.83,2,0,10,0.00
2014-10-17,87.6,72.3,58.7,68.1,63.4,58.1,100,76,46,29.90,29.79,1,0,7,0.00
2014-10-18,87.0,73.9,63.5,68.9,63.5,60.3,100,74,42,29.96,29.86,1,0,8,0.00
2014-10-19,82.4,71.9,64.3,65.5,63.4,59.7,94,76,51,30.01,29.92,2,0,8,0.00
2014-10-20,82.4,70.7,60.7,65.0,61.0,58.0,95,74,46,29.98,29.89,2,0,8,0.00
2014-10-21,83.0,69.6,57.8,60.3,56.5,48.7,92,67,32,29.98,29.88,1,0,7,0.00
2014-10-22,82.6,70.4,62.0,63.9,59.9,57.1,96,72,43,30.03,29.92,2,0,9,0.00
2014-10-23,79.4,67.8,61.0,59.8,57.1,53.5,88,71,42,30.05,29.97,1,0,7,0.00
2014-10-24,82.0,67.4,55.6,60.1,55.5,50.9,93,69,36,30.09,29.99,1,0,6,0.00
2014-10-25,85.3,69.7,56.2,61.1,58.5,54.5,95,71,41,30.09,30.00,0,0,3,0.00
2014-10-26,85.7,69.7,55.3,66.4,59.5,54.5,100,74,39,30.01,29.86,2,0,9,0.00
2014-10-27,85.7,72.0,59.6,64.8,61.1,56.4,98,72,40,29.88,29.80,3,1,13,0.00
2014-10-28,88.0,73.7,61.2,68.0,63.2,59.4,99,73,40,29.97,29.84,1,0,6,0.00
2014-10-29,84.5,72.4,64.3,69.7,65.9,61.4,98,81,56,30.03,29.96,4,0,11,0.00
2014-10-30,81.6,68.3,57.6,61.7,56.6,51.6,88,69,41,30.06,29.95,1,0,5,0.00
2014-10-31,77.0,66.6,57.3,58.1,49.0,38.2,88,58,27,30.19,30.00,6,1,15,0.00
2014-11-1,65.5,55.0,45.2,45.7,40.6,34.6,88,61,33,30.33,30.19,5,0,10,0.00
2014-11-2,74.0,57.7,41.9,56.3,47.7,38.3,90,71,47,30.28,30.14,3,0,11,0.00
2014-11-3,81.6,68.8,55.6,63.7,58.7,53.1,94,73,45,30.14,30.04,4,1,14,0.00
2014-11-4,80.1,71.9,66.9,70.4,66.1,63.3,90,82,61,30.04,29.95,5,0,12,0.04
2014-11-5,71.8,65.6,62.4,68.2,64.8,62.4,100,97,86,30.08,29.94,4,0,9,0.49
2014-11-6,65.2,62.1,57.3,63.7,59.6,54.4,100,92,72,30.18,30.06,4,0,8,0.20
2014-11-7,65.5,57.1,49.9,54.3,46.3,40.0,91,69,41,30.18,29.97,2,0,8,0.00
2014-11-8,75.4,61.3,52.2,54.3,49.6,43.2,92,68,37,30.06,29.92,4,0,10,0.01
2014-11-9,73.9,58.1,46.0,49.9,45.2,38.2,90,67,30,30.06,29.88,1,0,5,0.00
2014-11-10,80.5,63.5,45.1,62.9,55.1,44.0,100,77,46,29.88,29.71,5,1,14,0.00
2014-11-11,69.1,57.9,48.8,67.6,50.5,34.8,99,78,59,30.05,29.72,8,3,20,0.05
2014-11-12,55.0,48.1,42.6,37.8,34.1,27.6,70,59,52,30.24,30.05,7,4,18,0.00
2014-11-13,44.5,39.7,34.7,33.0,24.0,16.2,88,55,39,30.40,30.24,6,4,17,0.52
2014-11-14,46.4,41.2,35.9,32.4,22.0,16.9,63,47,35,30.37,30.20,3,1,11,0.00
2014-11-15,53.6,48.7,43.8,51.3,39.4,30.1,99,71,58,30.20,29.90,4,1,11,0.18
2014-11-16,56.0,51.3,41.8,56.0,50.6,37.1,100,98,84,30.02,29.77,9,2,16,0.28
2014-11-17,49.9,41.2,34.7,37.4,25.6,17.7,85,57,28,30.37,30.02,8,4,20,0.00
2014-11-18,54.7,41.5,32.7,31.6,25.3,17.0,85,57,27,30.46,30.35,3,0,8,0.00
2014-11-19,69.9,52.1,32.5,51.6,43.9,29.4,93,76,50,30.35,30.11,3,0,10,0.00
2014-11-20,73.2,59.9,47.3,61.7,55.0,45.9,100,85,59,30.11,29.96,3,0,15,0.19
2014-11-21,68.1,64.5,61.5,67.8,64.0,61.2,100,98,92,30.06,29.98,4,0,10,0.36
2014-11-22,68.8,64.3,60.5,66.4,63.5,60.5,100,97,85,30.04,29.59,4,1,12,0.19
2014-11-23,79.8,67.5,58.6,63.7,58.5,48.6,100,77,34,29.66,29.44,4,1,12,0.04
2014-11-24,65.5,55.9,45.5,50.3,37.8,29.3,79,54,27,30.06,29.66,6,2,14,0.00
2014-11-25,66.3,51.5,43.5,39.7,34.7,24.6,77,57,21,30.23,30.05,3,0,8,0.00
2014-11-26,71.8,54.7,40.6,44.0,39.8,33.6,88,63,28,30.24,30.08,5,1,12,0.00
2014-11-27,66.9,53.5,43.1,43.3,37.1,27.0,92,59,25,30.41,30.24,3,0,10,0.00
2014-11-28,72.8,56.5,40.1,57.2,50.0,38.1,99,81,57,30.31,30.04,4,0,10,0.00
2014-11-29,78.6,65.9,54.7,66.0,59.7,54.4,100,82,55,30.03,29.93,4,1,15,0.01
2014-11-30,78.6,69.6,62.7,65.5,62.6,60.1,96,80,55,30.05,29.95,4,0,11,0.00
2014-12-1,66.6,56.1,44.3,66.6,54.1,37.1,100,93,75,30.29,30.05,7,2,18,0.06
2014-12-2,55.3,50.0,44.5,49.1,40.7,33.1,84,70,64,30.27,30.12,5,1,12,0.00
2014-12-3,69.4,59.4,52.6,58.4,54.7,48.9,99,85,67,30.17,30.03,1,0,7,0.00
2014-12-4,73.0,63.7,56.5,65.4,61.3,55.8,100,92,70,30.09,29.98,2,0,9,0.01
2014-12-5,81.2,71.7,65.0,74.2,68.0,65.0,100,89,64,30.07,29.96,4,0,12,0.02
2014-12-6,70.6,64.3,59.0,69.8,61.6,54.5,100,91,84,30.23,30.08,5,1,11,0.01
2014-12-7,59.5,57.4,53.2,54.8,52.3,49.2,92,83,77,30.27,30.14,2,0,6,0.00
2014-12-8,66.4,55.9,47.1,50.6,47.5,44.0,91,75,47,30.25,30.15,4,0,8,0.00
2014-12-9,69.9,54.3,42.6,49.6,45.7,41.3,98,76,42,30.27,30.14,1,0,4,0.00
2014-12-10,69.3,56.0,42.9,55.8,49.8,41.5,100,81,55,30.18,30.06,1,0,6,0.01
2014-12-11,73.5,64.0,58.4,59.8,56.0,52.2,96,77,50,30.15,30.06,2,0,9,0.04
2014-12-12,76.0,65.7,59.2,58.5,56.2,52.0,93,73,46,30.21,30.11,2,0,11,0.00
2014-12-13,75.1,64.4,56.6,62.8,59.9,56.0,100,86,59,30.14,30.00,3,0,11,0.01
2014-12-14,76.7,67.3,59.0,67.4,63.0,58.4,100,87,65,30.00,29.81,5,1,14,0.04
2014-12-15,77.2,68.6,57.6,68.1,59.9,39.4,100,77,40,30.06,29.83,4,1,10,0.01
2014-12-16,65.6,55.9,49.1,41.7,37.2,32.8,69,51,34,30.22,30.06,6,1,11,0.00
2014-12-17,64.8,55.4,45.1,58.5,48.2,38.0,95,77,64,30.18,29.97,5,1,10,0.03
2014-12-18,70.9,64.0,59.6,64.0,61.3,58.7,100,91,77,30.02,29.90,2,0,11,0.33
2014-12-19,60.9,56.3,52.5,60.1,55.5,50.8,100,97,90,30.04,29.89,6,2,13,2.25
2014-12-20,55.0,52.7,51.1,51.1,49.3,47.3,95,88,83,30.13,30.03,4,1,9,0.00
2014-12-21,62.3,55.1,50.4,54.8,49.6,46.4,94,82,66,30.08,29.77,2,0,7,0.00
2014-12-22,71.5,62.8,56.2,63.0,59.4,54.8,100,89,70,29.77,29.51,5,1,10,0.00
2014-12-23,59.8,55.3,47.3,59.8,49.9,38.1,100,83,64,29.83,29.48,9,3,18,0.04
2014-12-24,53.9,46.1,38.8,38.2,35.7,32.7,89,68,48,30.05,29.84,7,2,17,0.00
2014-12-25,66.8,50.9,34.0,49.7,42.0,32.7,97,75,43,30.09,29.94,5,1,15,0.00
2014-12-26,71.5,64.6,53.9,67.0,60.6,49.4,97,87,78,29.94,29.82,4,1,14,0.06
2014-12-27,73.0,59.6,46.1,72.4,57.8,41.6,100,94,83,30.11,29.86,8,2,18,0.52
2014-12-28,46.2,41.0,39.6,42.1,39.8,38.8,99,96,84,30.15,30.05,6,2,13,0.85
2014-12-29,50.4,44.0,37.8,46.9,42.6,37.5,100,95,83,30.13,30.00,2,0,8,0.00
2014-12-30,54.2,48.2,40.9,46.4,43.3,35.8,94,84,70,30.35,30.12,5,1,11,0.00
2014-12-31,45.2,42.7,40.3,36.1,34.7,33.5,83,73,67,30.40,30.25,4,2,10,0.00
2015-1-1,46.5,43.6,40.8,46.5,40.3,34.3,100,89,69,30.26,30.00,3,1,11,0.12
2015-1-2,52.5,49.2,46.0,52.5,49.2,46.0,100,100,100,30.01,29.80,2,0,8,0.30